sensor_id;sensor_type;location;lat;lon;timestamp;temperature;humidity
68485;DHT22;55472;50.060;21.960;2023-01-16T00:01:37;1.50;99.90
68485;DHT22;55472;50.060;21.960;2023-01-16T00:04:04;1.50;99.90
68485;DHT22;55472;50.060;21.960;2023-01-16T00:06:30;1.50;99.90
68485;DHT22;55472;50.060;21.960;2023-01-16T00:08:56;1.50;99.90
68485;DHT22;55472;50.060;21.960;2023-01-16T00:11:23;1.50;99.90
68485;DHT22;55472;50.060;21.960;2023-01-16T00:13:49;1.50;99.90
68485;DHT22;55472;50.060;21.960;2023-01-16T00:16:15;1.50;99.90
68485;DHT22;55472;50.060;21.960;2023-01-16T00:18:44;1.50;99.90
68485;DHT22;55472;50.060;21.960;2023-01-16T00:21:10;1.50;99.90
68485;DHT22;55472;50.060;21.960;2023-01-16T00:23:36;1.50;99.90
68485;DHT22;55472;50.060;21.960;2023-01-16T00:26:07;1.50;99.90
68485;DHT22;55472;50.060;21.960;2023-01-16T00:28:35;1.40;99.90
68485;DHT22;55472;50.060;21.960;2023-01-16T00:31:06;1.50;99.90
68485;DHT22;55472;50.060;21.960;2023-01-16T00:33:33;1.50;99.90
68485;DHT22;55472;50.060;21.960;2023-01-16T00:36:01;1.50;99.90
68485;DHT22;55472;50.060;21.960;2023-01-16T00:38:27;1.50;99.90
68485;DHT22;55472;50.060;21.960;2023-01-16T00:40:53;1.50;99.90
68485;DHT22;55472;50.060;21.960;2023-01-16T00:43:19;1.50;99.90
68485;DHT22;55472;50.060;21.960;2023-01-16T00:45:46;1.50;99.90
68485;DHT22;55472;50.060;21.960;2023-01-16T00:48:12;1.50;99.90
68485;DHT22;55472;50.060;21.960;2023-01-16T00:50:39;1.50;99.90
68485;DHT22;55472;50.060;21.960;2023-01-16T00:53:05;1.50;99.90
68485;DHT22;55472;50.060;21.960;2023-01-16T00:55:35;1.50;99.90
68485;DHT22;55472;50.060;21.960;2023-01-16T00:58:03;1.50;99.90
68485;DHT22;55472;50.060;21.960;2023-01-16T01:00:30;1.50;99.90
68485;DHT22;55472;50.060;21.960;2023-01-16T01:02:56;1.50;99.90
68485;DHT22;55472;50.060;21.960;2023-01-16T01:05:22;1.50;99.90
68485;DHT22;55472;50.060;21.960;2023-01-16T01:07:49;1.50;99.90
68485;DHT22;55472;50.060;21.960;2023-01-16T01:10:16;1.50;99.90
68485;DHT22;55472;50.060;21.960;2023-01-16T01:12:42;1.50;99.90
68485;DHT22;55472;50.060;21.960;2023-01-16T01:15:08;1.50;99.90
68485;DHT22;55472;50.060;21.960;2023-01-16T01:17:35;1.50;99.90
68485;DHT22;55472;50.060;21.960;2023-01-16T01:20:01;1.50;99.90
68485;DHT22;55472;50.060;21.960;2023-01-16T01:22:28;1.50;99.90
68485;DHT22;55472;50.060;21.960;2023-01-16T01:24:54;1.50;99.90
68485;DHT22;55472;50.060;21.960;2023-01-16T01:27:20;1.50;99.90
68485;DHT22;55472;50.060;21.960;2023-01-16T01:29:47;1.50;99.90
68485;DHT22;55472;50.060;21.960;2023-01-16T01:32:13;1.50;99.90
68485;DHT22;55472;50.060;21.960;2023-01-16T01:34:39;1.50;99.90
68485;DHT22;55472;50.060;21.960;2023-01-16T01:37:07;1.50;99.90
68485;DHT22;55472;50.060;21.960;2023-01-16T01:39:34;1.60;99.90
68485;DHT22;55472;50.060;21.960;2023-01-16T01:42:00;1.60;99.90
68485;DHT22;55472;50.060;21.960;2023-01-16T01:44:54;1.60;99.90
68485;DHT22;55472;50.060;21.960;2023-01-16T01:47:30;1.60;99.90
68485;DHT22;55472;50.060;21.960;2023-01-16T01:50:02;1.60;99.90
68485;DHT22;55472;50.060;21.960;2023-01-16T01:52:31;1.60;99.90
68485;DHT22;55472;50.060;21.960;2023-01-16T01:55:04;1.60;99.90
68485;DHT22;55472;50.060;21.960;2023-01-16T01:57:37;1.60;99.90
68485;DHT22;55472;50.060;21.960;2023-01-16T02:02:35;1.60;99.90
68485;DHT22;55472;50.060;21.960;2023-01-16T02:05:07;1.60;99.90
68485;DHT22;55472;50.060;21.960;2023-01-16T02:07:34;1.60;99.90
68485;DHT22;55472;50.060;21.960;2023-01-16T02:10:22;1.60;99.90
68485;DHT22;55472;50.060;21.960;2023-01-16T02:12:53;1.60;99.90
68485;DHT22;55472;50.060;21.960;2023-01-16T02:15:21;1.60;99.90
68485;DHT22;55472;50.060;21.960;2023-01-16T02:17:48;1.60;99.90
68485;DHT22;55472;50.060;21.960;2023-01-16T02:20:47;1.70;99.90
68485;DHT22;55472;50.060;21.960;2023-01-16T02:31:58;1.70;99.90
68485;DHT22;55472;50.060;21.960;2023-01-16T02:43:36;1.60;99.90
68485;DHT22;55472;50.060;21.960;2023-01-16T02:46:19;1.60;99.90
68485;DHT22;55472;50.060;21.960;2023-01-16T02:49:23;1.60;99.90
68485;DHT22;55472;50.060;21.960;2023-01-16T02:52:44;1.60;99.90
68485;DHT22;55472;50.060;21.960;2023-01-16T02:55:05;1.50;99.90
68485;DHT22;55472;50.060;21.960;2023-01-16T02:57:45;1.50;99.90
68485;DHT22;55472;50.060;21.960;2023-01-16T03:00:15;1.50;99.90
68485;DHT22;55472;50.060;21.960;2023-01-16T03:02:45;1.50;99.90
68485;DHT22;55472;50.060;21.960;2023-01-16T03:05:12;1.50;99.90
68485;DHT22;55472;50.060;21.960;2023-01-16T03:07:50;1.50;99.90
68485;DHT22;55472;50.060;21.960;2023-01-16T03:10:43;1.50;99.90
68485;DHT22;55472;50.060;21.960;2023-01-16T03:22:41;1.50;99.90
68485;DHT22;55472;50.060;21.960;2023-01-16T03:40:00;1.40;99.90
68485;DHT22;55472;50.060;21.960;2023-01-16T03:42:50;1.40;99.90
68485;DHT22;55472;50.060;21.960;2023-01-16T03:45:55;1.40;99.90
68485;DHT22;55472;50.060;21.960;2023-01-16T03:50:57;1.30;99.90
68485;DHT22;55472;50.060;21.960;2023-01-16T03:53:29;1.30;99.90
68485;DHT22;55472;50.060;21.960;2023-01-16T03:56:21;1.30;99.90
68485;DHT22;55472;50.060;21.960;2023-01-16T03:58:53;1.30;99.90
68485;DHT22;55472;50.060;21.960;2023-01-16T04:04:34;1.20;99.90
68485;DHT22;55472;50.060;21.960;2023-01-16T04:07:12;1.20;99.90
68485;DHT22;55472;50.060;21.960;2023-01-16T04:09:50;1.20;99.90
68485;DHT22;55472;50.060;21.960;2023-01-16T04:12:23;1.20;99.90
68485;DHT22;55472;50.060;21.960;2023-01-16T04:14:56;1.20;99.90
68485;DHT22;55472;50.060;21.960;2023-01-16T04:17:26;1.10;99.90
68485;DHT22;55472;50.060;21.960;2023-01-16T04:19:53;1.10;99.90
68485;DHT22;55472;50.060;21.960;2023-01-16T04:22:22;1.10;99.90
68485;DHT22;55472;50.060;21.960;2023-01-16T04:24:51;1.10;99.90
68485;DHT22;55472;50.060;21.960;2023-01-16T04:27:19;1.10;99.90
68485;DHT22;55472;50.060;21.960;2023-01-16T04:29:46;1.10;99.90
68485;DHT22;55472;50.060;21.960;2023-01-16T04:32:12;1.10;99.90
68485;DHT22;55472;50.060;21.960;2023-01-16T04:34:38;1.10;99.90
68485;DHT22;55472;50.060;21.960;2023-01-16T04:37:05;1.10;99.90
68485;DHT22;55472;50.060;21.960;2023-01-16T04:39:31;1.10;99.90
68485;DHT22;55472;50.060;21.960;2023-01-16T04:41:58;1.10;99.90
68485;DHT22;55472;50.060;21.960;2023-01-16T04:44:24;1.10;99.90
68485;DHT22;55472;50.060;21.960;2023-01-16T04:46:51;1.10;99.90
68485;DHT22;55472;50.060;21.960;2023-01-16T04:49:17;1.10;99.90
68485;DHT22;55472;50.060;21.960;2023-01-16T04:51:43;1.10;99.90
68485;DHT22;55472;50.060;21.960;2023-01-16T04:54:14;1.10;99.90
68485;DHT22;55472;50.060;21.960;2023-01-16T04:56:41;1.10;99.90
68485;DHT22;55472;50.060;21.960;2023-01-16T04:59:08;1.10;99.90
68485;DHT22;55472;50.060;21.960;2023-01-16T05:01:36;1.10;99.90
68485;DHT22;55472;50.060;21.960;2023-01-16T05:04:04;1.10;99.90
68485;DHT22;55472;50.060;21.960;2023-01-16T05:06:32;1.20;99.90
68485;DHT22;55472;50.060;21.960;2023-01-16T05:08:58;1.20;99.90
68485;DHT22;55472;50.060;21.960;2023-01-16T05:11:25;1.20;99.90
68485;DHT22;55472;50.060;21.960;2023-01-16T05:13:51;1.20;99.90
68485;DHT22;55472;50.060;21.960;2023-01-16T05:16:18;1.20;99.90
68485;DHT22;55472;50.060;21.960;2023-01-16T05:18:44;1.20;99.90
68485;DHT22;55472;50.060;21.960;2023-01-16T05:21:10;1.20;99.90
68485;DHT22;55472;50.060;21.960;2023-01-16T05:23:36;1.20;99.90
68485;DHT22;55472;50.060;21.960;2023-01-16T05:26:04;1.20;99.90
68485;DHT22;55472;50.060;21.960;2023-01-16T05:28:32;1.30;99.90
68485;DHT22;55472;50.060;21.960;2023-01-16T05:30:59;1.20;99.90
68485;DHT22;55472;50.060;21.960;2023-01-16T05:33:26;1.30;99.90
68485;DHT22;55472;50.060;21.960;2023-01-16T05:35:52;1.20;99.90
68485;DHT22;55472;50.060;21.960;2023-01-16T05:38:20;1.20;99.90
68485;DHT22;55472;50.060;21.960;2023-01-16T05:40:46;1.30;99.90
68485;DHT22;55472;50.060;21.960;2023-01-16T05:43:13;1.20;99.90
68485;DHT22;55472;50.060;21.960;2023-01-16T05:45:40;1.30;99.90
68485;DHT22;55472;50.060;21.960;2023-01-16T05:48:07;1.30;99.90
68485;DHT22;55472;50.060;21.960;2023-01-16T05:50:33;1.30;99.90
68485;DHT22;55472;50.060;21.960;2023-01-16T05:52:59;1.30;99.90
68485;DHT22;55472;50.060;21.960;2023-01-16T05:55:26;1.30;99.90
68485;DHT22;55472;50.060;21.960;2023-01-16T05:57:52;1.30;99.90
68485;DHT22;55472;50.060;21.960;2023-01-16T06:00:19;1.30;99.90
68485;DHT22;55472;50.060;21.960;2023-01-16T06:02:45;1.30;99.90
68485;DHT22;55472;50.060;21.960;2023-01-16T06:05:13;1.30;99.90
68485;DHT22;55472;50.060;21.960;2023-01-16T06:07:39;1.30;99.90
68485;DHT22;55472;50.060;21.960;2023-01-16T06:10:09;1.30;99.90
68485;DHT22;55472;50.060;21.960;2023-01-16T06:12:35;1.30;99.90
68485;DHT22;55472;50.060;21.960;2023-01-16T06:15:02;1.30;99.90
68485;DHT22;55472;50.060;21.960;2023-01-16T06:17:28;1.30;99.90
68485;DHT22;55472;50.060;21.960;2023-01-16T06:19:55;1.30;99.90
68485;DHT22;55472;50.060;21.960;2023-01-16T06:22:22;1.30;99.90
68485;DHT22;55472;50.060;21.960;2023-01-16T06:24:49;1.30;99.90
68485;DHT22;55472;50.060;21.960;2023-01-16T06:27:15;1.40;99.90
68485;DHT22;55472;50.060;21.960;2023-01-16T06:29:41;1.30;99.90
68485;DHT22;55472;50.060;21.960;2023-01-16T06:32:08;1.30;99.90
68485;DHT22;55472;50.060;21.960;2023-01-16T06:34:35;1.30;99.90
68485;DHT22;55472;50.060;21.960;2023-01-16T06:37:01;1.30;99.90
68485;DHT22;55472;50.060;21.960;2023-01-16T06:39:27;1.40;99.90
68485;DHT22;55472;50.060;21.960;2023-01-16T06:41:53;1.40;99.90
68485;DHT22;55472;50.060;21.960;2023-01-16T06:44:19;1.30;99.90
68485;DHT22;55472;50.060;21.960;2023-01-16T06:46:46;1.30;99.90
68485;DHT22;55472;50.060;21.960;2023-01-16T06:49:12;1.30;99.90
68485;DHT22;55472;50.060;21.960;2023-01-16T06:51:38;1.30;99.90
68485;DHT22;55472;50.060;21.960;2023-01-16T06:54:05;1.40;99.90
68485;DHT22;55472;50.060;21.960;2023-01-16T06:56:31;1.40;99.90
68485;DHT22;55472;50.060;21.960;2023-01-16T06:58:57;1.40;99.90
68485;DHT22;55472;50.060;21.960;2023-01-16T07:01:23;1.40;99.90
68485;DHT22;55472;50.060;21.960;2023-01-16T07:03:50;1.40;99.90
68485;DHT22;55472;50.060;21.960;2023-01-16T07:06:16;1.40;99.90
68485;DHT22;55472;50.060;21.960;2023-01-16T07:08:42;1.40;99.90
68485;DHT22;55472;50.060;21.960;2023-01-16T07:11:09;1.40;99.90
68485;DHT22;55472;50.060;21.960;2023-01-16T07:13:35;1.40;99.90
68485;DHT22;55472;50.060;21.960;2023-01-16T07:16:01;1.40;99.90
68485;DHT22;55472;50.060;21.960;2023-01-16T07:18:46;1.50;99.90
68485;DHT22;55472;50.060;21.960;2023-01-16T07:21:36;1.40;99.90
68485;DHT22;55472;50.060;21.960;2023-01-16T07:24:25;1.50;99.90
68485;DHT22;55472;50.060;21.960;2023-01-16T07:26:57;1.50;99.90
68485;DHT22;55472;50.060;21.960;2023-01-16T07:29:30;1.50;99.90
68485;DHT22;55472;50.060;21.960;2023-01-16T07:31:59;1.50;99.90
68485;DHT22;55472;50.060;21.960;2023-01-16T07:34:27;1.50;99.90
68485;DHT22;55472;50.060;21.960;2023-01-16T07:36:53;1.60;99.90
68485;DHT22;55472;50.060;21.960;2023-01-16T07:39:19;1.60;99.90
68485;DHT22;55472;50.060;21.960;2023-01-16T07:41:45;1.60;99.90
68485;DHT22;55472;50.060;21.960;2023-01-16T07:44:14;1.60;99.90
68485;DHT22;55472;50.060;21.960;2023-01-16T07:46:40;1.70;99.90
68485;DHT22;55472;50.060;21.960;2023-01-16T07:49:06;1.70;99.90
68485;DHT22;55472;50.060;21.960;2023-01-16T07:51:32;1.80;99.90
68485;DHT22;55472;50.060;21.960;2023-01-16T07:53:59;1.80;99.90
68485;DHT22;55472;50.060;21.960;2023-01-16T07:56:25;1.90;99.90
68485;DHT22;55472;50.060;21.960;2023-01-16T07:58:51;1.90;99.90
68485;DHT22;55472;50.060;21.960;2023-01-16T08:01:20;1.90;99.90
68485;DHT22;55472;50.060;21.960;2023-01-16T08:03:46;1.90;99.90
68485;DHT22;55472;50.060;21.960;2023-01-16T08:06:12;1.90;99.90
68485;DHT22;55472;50.060;21.960;2023-01-16T08:08:38;1.90;99.90
68485;DHT22;55472;50.060;21.960;2023-01-16T08:11:04;2.00;99.90
68485;DHT22;55472;50.060;21.960;2023-01-16T08:13:51;2.00;99.90
68485;DHT22;55472;50.060;21.960;2023-01-16T08:16:17;2.00;99.90
68485;DHT22;55472;50.060;21.960;2023-01-16T08:18:43;2.00;99.90
68485;DHT22;55472;50.060;21.960;2023-01-16T08:21:15;2.00;99.90
68485;DHT22;55472;50.060;21.960;2023-01-16T08:23:42;2.00;99.90
68485;DHT22;55472;50.060;21.960;2023-01-16T08:26:10;2.00;99.90
68485;DHT22;55472;50.060;21.960;2023-01-16T08:28:37;2.10;99.90
68485;DHT22;55472;50.060;21.960;2023-01-16T08:31:05;2.10;99.90
68485;DHT22;55472;50.060;21.960;2023-01-16T08:33:37;2.10;99.90
68485;DHT22;55472;50.060;21.960;2023-01-16T08:36:05;2.10;99.90
68485;DHT22;55472;50.060;21.960;2023-01-16T08:38:33;2.20;99.90
68485;DHT22;55472;50.060;21.960;2023-01-16T08:41:00;2.20;99.90
68485;DHT22;55472;50.060;21.960;2023-01-16T08:43:26;2.30;99.90
68485;DHT22;55472;50.060;21.960;2023-01-16T08:46:22;2.40;99.90
68485;DHT22;55472;50.060;21.960;2023-01-16T08:49:11;2.50;99.90
68485;DHT22;55472;50.060;21.960;2023-01-16T08:51:58;2.60;99.90
68485;DHT22;55472;50.060;21.960;2023-01-16T08:54:25;2.70;99.90
68485;DHT22;55472;50.060;21.960;2023-01-16T08:56:51;2.70;99.90
68485;DHT22;55472;50.060;21.960;2023-01-16T08:59:17;2.70;99.90
68485;DHT22;55472;50.060;21.960;2023-01-16T09:01:44;2.80;99.90
68485;DHT22;55472;50.060;21.960;2023-01-16T09:04:10;2.80;99.90
68485;DHT22;55472;50.060;21.960;2023-01-16T09:06:36;2.80;99.90
68485;DHT22;55472;50.060;21.960;2023-01-16T09:09:04;2.80;99.90
68485;DHT22;55472;50.060;21.960;2023-01-16T09:11:34;2.90;99.90
68485;DHT22;55472;50.060;21.960;2023-01-16T09:14:19;2.90;99.90
68485;DHT22;55472;50.060;21.960;2023-01-16T09:16:46;2.90;99.90
68485;DHT22;55472;50.060;21.960;2023-01-16T09:19:12;2.90;99.90
68485;DHT22;55472;50.060;21.960;2023-01-16T09:21:38;2.90;99.90
68485;DHT22;55472;50.060;21.960;2023-01-16T09:24:05;2.90;99.90
68485;DHT22;55472;50.060;21.960;2023-01-16T09:26:31;2.90;99.90
68485;DHT22;55472;50.060;21.960;2023-01-16T09:28:57;2.90;99.90
68485;DHT22;55472;50.060;21.960;2023-01-16T09:31:23;2.90;99.90
68485;DHT22;55472;50.060;21.960;2023-01-16T09:33:50;2.90;99.90
68485;DHT22;55472;50.060;21.960;2023-01-16T09:36:17;2.90;99.90
68485;DHT22;55472;50.060;21.960;2023-01-16T09:38:44;2.90;99.90
68485;DHT22;55472;50.060;21.960;2023-01-16T09:41:17;2.90;99.90
68485;DHT22;55472;50.060;21.960;2023-01-16T09:44:06;2.90;99.90
68485;DHT22;55472;50.060;21.960;2023-01-16T09:46:47;2.90;99.90
68485;DHT22;55472;50.060;21.960;2023-01-16T09:52:09;2.90;99.90
68485;DHT22;55472;50.060;21.960;2023-01-16T09:55:02;2.90;99.90
68485;DHT22;55472;50.060;21.960;2023-01-16T09:57:51;2.90;99.90
68485;DHT22;55472;50.060;21.960;2023-01-16T10:00:38;2.90;99.90
68485;DHT22;55472;50.060;21.960;2023-01-16T10:03:04;3.00;99.90
68485;DHT22;55472;50.060;21.960;2023-01-16T10:05:49;3.00;99.90
68485;DHT22;55472;50.060;21.960;2023-01-16T10:08:33;3.00;99.90
68485;DHT22;55472;50.060;21.960;2023-01-16T10:11:34;3.10;99.90
68485;DHT22;55472;50.060;21.960;2023-01-16T10:22:59;3.10;99.90
68485;DHT22;55472;50.060;21.960;2023-01-16T10:25:48;3.10;99.90
68485;DHT22;55472;50.060;21.960;2023-01-16T10:31:27;3.10;99.90
68485;DHT22;55472;50.060;21.960;2023-01-16T10:34:02;3.10;99.90
68485;DHT22;55472;50.060;21.960;2023-01-16T10:36:43;3.10;99.90
68485;DHT22;55472;50.060;21.960;2023-01-16T10:39:15;3.10;99.90
68485;DHT22;55472;50.060;21.960;2023-01-16T10:41:52;3.10;99.90
68485;DHT22;55472;50.060;21.960;2023-01-16T10:44:46;3.10;99.90
68485;DHT22;55472;50.060;21.960;2023-01-16T10:47:38;3.10;99.90
68485;DHT22;55472;50.060;21.960;2023-01-16T10:50:24;3.10;99.90
68485;DHT22;55472;50.060;21.960;2023-01-16T10:52:50;3.10;99.90
68485;DHT22;55472;50.060;21.960;2023-01-16T10:55:17;3.10;99.90
68485;DHT22;55472;50.060;21.960;2023-01-16T10:57:57;3.10;99.90
68485;DHT22;55472;50.060;21.960;2023-01-16T11:00:29;3.10;99.90
68485;DHT22;55472;50.060;21.960;2023-01-16T11:03:01;3.20;99.90
68485;DHT22;55472;50.060;21.960;2023-01-16T11:05:35;3.20;99.90
68485;DHT22;55472;50.060;21.960;2023-01-16T11:08:19;3.20;99.90
68485;DHT22;55472;50.060;21.960;2023-01-16T11:10:47;3.20;99.90
68485;DHT22;55472;50.060;21.960;2023-01-16T11:13:25;3.20;99.90
68485;DHT22;55472;50.060;21.960;2023-01-16T11:19:21;3.20;97.20
68485;DHT22;55472;50.060;21.960;2023-01-16T11:21:54;3.20;97.20
68485;DHT22;55472;50.060;21.960;2023-01-16T11:24:31;3.20;97.90
68485;DHT22;55472;50.060;21.960;2023-01-16T11:27:00;3.20;98.50
68485;DHT22;55472;50.060;21.960;2023-01-16T11:29:34;3.20;97.00
68485;DHT22;55472;50.060;21.960;2023-01-16T11:32:06;3.20;96.70
68485;DHT22;55472;50.060;21.960;2023-01-16T11:34:36;3.20;95.20
68485;DHT22;55472;50.060;21.960;2023-01-16T11:37:06;3.30;94.90
68485;DHT22;55472;50.060;21.960;2023-01-16T11:39:34;3.20;94.70
68485;DHT22;55472;50.060;21.960;2023-01-16T11:42:09;3.20;94.90
68485;DHT22;55472;50.060;21.960;2023-01-16T11:45:00;3.30;94.40
68485;DHT22;55472;50.060;21.960;2023-01-16T11:47:56;3.30;94.90
68485;DHT22;55472;50.060;21.960;2023-01-16T11:50:32;3.20;93.80
68485;DHT22;55472;50.060;21.960;2023-01-16T11:53:02;3.30;94.00
68485;DHT22;55472;50.060;21.960;2023-01-16T11:55:38;3.20;94.30
68485;DHT22;55472;50.060;21.960;2023-01-16T12:01:20;3.20;94.80
68485;DHT22;55472;50.060;21.960;2023-01-16T12:04:26;3.30;94.80
68485;DHT22;55472;50.060;21.960;2023-01-16T12:09:48;3.30;94.30
68485;DHT22;55472;50.060;21.960;2023-01-16T12:17:57;3.30;95.80
68485;DHT22;55472;50.060;21.960;2023-01-16T12:26:39;3.30;95.80
68485;DHT22;55472;50.060;21.960;2023-01-16T12:32:16;3.30;96.40
68485;DHT22;55472;50.060;21.960;2023-01-16T12:35:04;3.40;96.70
68485;DHT22;55472;50.060;21.960;2023-01-16T12:46:13;3.40;95.70
68485;DHT22;55472;50.060;21.960;2023-01-16T12:49:08;3.40;95.50
68485;DHT22;55472;50.060;21.960;2023-01-16T13:00:27;3.40;96.30
68485;DHT22;55472;50.060;21.960;2023-01-16T13:05:42;3.30;96.30
68485;DHT22;55472;50.060;21.960;2023-01-16T13:08:40;3.30;96.20
68485;DHT22;55472;50.060;21.960;2023-01-16T13:11:16;3.30;96.40
68485;DHT22;55472;50.060;21.960;2023-01-16T13:14:08;3.30;97.20
68485;DHT22;55472;50.060;21.960;2023-01-16T13:17:01;3.30;97.30
68485;DHT22;55472;50.060;21.960;2023-01-16T13:19:32;3.30;97.40
68485;DHT22;55472;50.060;21.960;2023-01-16T13:22:21;3.30;97.90
68485;DHT22;55472;50.060;21.960;2023-01-16T13:25:02;3.30;97.80
68485;DHT22;55472;50.060;21.960;2023-01-16T13:27:40;3.30;98.20
68485;DHT22;55472;50.060;21.960;2023-01-16T13:30:13;3.30;98.10
68485;DHT22;55472;50.060;21.960;2023-01-16T13:35:23;3.30;98.60
68485;DHT22;55472;50.060;21.960;2023-01-16T13:44:07;3.30;99.50
68485;DHT22;55472;50.060;21.960;2023-01-16T13:46:52;3.20;99.50
68485;DHT22;55472;50.060;21.960;2023-01-16T13:49:23;3.20;99.50
68485;DHT22;55472;50.060;21.960;2023-01-16T13:51:52;3.20;99.70
68485;DHT22;55472;50.060;21.960;2023-01-16T13:54:24;3.20;99.90
68485;DHT22;55472;50.060;21.960;2023-01-16T13:57:03;3.20;99.90
68485;DHT22;55472;50.060;21.960;2023-01-16T13:59:46;3.20;99.90
68485;DHT22;55472;50.060;21.960;2023-01-16T14:02:41;3.20;99.90
68485;DHT22;55472;50.060;21.960;2023-01-16T14:05:28;3.10;99.90
68485;DHT22;55472;50.060;21.960;2023-01-16T14:08:19;3.20;99.90
68485;DHT22;55472;50.060;21.960;2023-01-16T14:14:20;3.10;99.90
68485;DHT22;55472;50.060;21.960;2023-01-16T14:17:10;3.10;99.90
68485;DHT22;55472;50.060;21.960;2023-01-16T14:19:48;3.10;99.90
68485;DHT22;55472;50.060;21.960;2023-01-16T14:22:22;3.10;99.90
68485;DHT22;55472;50.060;21.960;2023-01-16T14:24:56;3.10;99.90
68485;DHT22;55472;50.060;21.960;2023-01-16T14:27:37;3.10;99.90
68485;DHT22;55472;50.060;21.960;2023-01-16T14:30:26;3.00;99.90
68485;DHT22;55472;50.060;21.960;2023-01-16T14:32:57;3.00;99.90
68485;DHT22;55472;50.060;21.960;2023-01-16T14:35:44;3.00;99.90
68485;DHT22;55472;50.060;21.960;2023-01-16T14:38:20;3.00;99.90
68485;DHT22;55472;50.060;21.960;2023-01-16T14:41:00;3.00;99.90
68485;DHT22;55472;50.060;21.960;2023-01-16T14:50:09;2.90;99.90
68485;DHT22;55472;50.060;21.960;2023-01-16T14:59:03;2.90;99.90
68485;DHT22;55472;50.060;21.960;2023-01-16T15:01:46;2.90;99.90
68485;DHT22;55472;50.060;21.960;2023-01-16T15:04:42;2.90;99.90
68485;DHT22;55472;50.060;21.960;2023-01-16T15:07:23;2.90;99.90
68485;DHT22;55472;50.060;21.960;2023-01-16T15:09:53;2.90;99.90
68485;DHT22;55472;50.060;21.960;2023-01-16T15:12:25;2.90;99.90
68485;DHT22;55472;50.060;21.960;2023-01-16T15:15:01;2.90;99.90
68485;DHT22;55472;50.060;21.960;2023-01-16T15:17:40;2.90;99.90
68485;DHT22;55472;50.060;21.960;2023-01-16T15:20:29;2.80;99.90
68485;DHT22;55472;50.060;21.960;2023-01-16T15:23:36;2.90;99.90
68485;DHT22;55472;50.060;21.960;2023-01-16T15:31:47;2.80;99.90
68485;DHT22;55472;50.060;21.960;2023-01-16T15:34:28;2.80;99.90
68485;DHT22;55472;50.060;21.960;2023-01-16T15:36:56;2.80;99.90
68485;DHT22;55472;50.060;21.960;2023-01-16T15:39:46;2.90;99.90
68485;DHT22;55472;50.060;21.960;2023-01-16T15:42:28;2.90;99.90
68485;DHT22;55472;50.060;21.960;2023-01-16T15:45:15;2.80;99.90
68485;DHT22;55472;50.060;21.960;2023-01-16T15:51:02;2.80;99.90
68485;DHT22;55472;50.060;21.960;2023-01-16T15:53:39;2.80;99.90
68485;DHT22;55472;50.060;21.960;2023-01-16T15:56:17;2.80;99.90
68485;DHT22;55472;50.060;21.960;2023-01-16T15:58:45;2.80;99.90
68485;DHT22;55472;50.060;21.960;2023-01-16T16:01:14;2.80;99.90
68485;DHT22;55472;50.060;21.960;2023-01-16T16:03:48;2.80;99.90
68485;DHT22;55472;50.060;21.960;2023-01-16T16:06:17;2.80;99.90
68485;DHT22;55472;50.060;21.960;2023-01-16T16:08:49;2.80;99.90
68485;DHT22;55472;50.060;21.960;2023-01-16T16:11:22;2.80;99.90
68485;DHT22;55472;50.060;21.960;2023-01-16T16:17:24;2.80;99.90
68485;DHT22;55472;50.060;21.960;2023-01-16T16:20:39;2.90;99.90
68485;DHT22;55472;50.060;21.960;2023-01-16T16:23:19;2.90;99.90
68485;DHT22;55472;50.060;21.960;2023-01-16T16:26:00;2.90;99.90
68485;DHT22;55472;50.060;21.960;2023-01-16T16:31:16;3.00;99.90
68485;DHT22;55472;50.060;21.960;2023-01-16T16:33:56;3.00;99.90
68485;DHT22;55472;50.060;21.960;2023-01-16T16:36:24;3.00;99.90
68485;DHT22;55472;50.060;21.960;2023-01-16T16:38:52;3.00;99.90
68485;DHT22;55472;50.060;21.960;2023-01-16T16:41:43;3.00;99.90
68485;DHT22;55472;50.060;21.960;2023-01-16T16:44:37;3.00;99.70
68485;DHT22;55472;50.060;21.960;2023-01-16T16:47:19;3.00;99.10
68485;DHT22;55472;50.060;21.960;2023-01-16T16:49:48;3.00;98.80
68485;DHT22;55472;50.060;21.960;2023-01-16T16:52:44;3.00;98.40
68485;DHT22;55472;50.060;21.960;2023-01-16T16:55:28;3.00;98.50
68485;DHT22;55472;50.060;21.960;2023-01-16T16:58:02;3.00;98.70
68485;DHT22;55472;50.060;21.960;2023-01-16T17:00:31;3.00;99.30
68485;DHT22;55472;50.060;21.960;2023-01-16T17:03:13;3.00;99.10
68485;DHT22;55472;50.060;21.960;2023-01-16T17:05:43;3.00;99.30
68485;DHT22;55472;50.060;21.960;2023-01-16T17:08:16;3.00;99.70
68485;DHT22;55472;50.060;21.960;2023-01-16T17:10:44;3.00;99.90
68485;DHT22;55472;50.060;21.960;2023-01-16T17:13:15;3.00;99.10
68485;DHT22;55472;50.060;21.960;2023-01-16T17:15:46;2.90;98.80
68485;DHT22;55472;50.060;21.960;2023-01-16T17:18:13;3.00;99.20
68485;DHT22;55472;50.060;21.960;2023-01-16T17:20:40;2.90;99.60
68485;DHT22;55472;50.060;21.960;2023-01-16T17:23:15;2.90;99.90
68485;DHT22;55472;50.060;21.960;2023-01-16T17:25:43;2.90;99.60
68485;DHT22;55472;50.060;21.960;2023-01-16T17:28:10;2.90;98.60
68485;DHT22;55472;50.060;21.960;2023-01-16T17:30:38;3.00;97.40
68485;DHT22;55472;50.060;21.960;2023-01-16T17:33:06;3.00;97.40
68485;DHT22;55472;50.060;21.960;2023-01-16T17:35:38;3.00;97.10
68485;DHT22;55472;50.060;21.960;2023-01-16T17:38:17;3.00;96.30
68485;DHT22;55472;50.060;21.960;2023-01-16T17:40:45;3.00;96.00
68485;DHT22;55472;50.060;21.960;2023-01-16T17:43:20;3.10;96.30
68485;DHT22;55472;50.060;21.960;2023-01-16T17:46:13;3.10;96.10
68485;DHT22;55472;50.060;21.960;2023-01-16T17:48:40;3.10;96.30
68485;DHT22;55472;50.060;21.960;2023-01-16T17:51:06;3.10;98.00
68485;DHT22;55472;50.060;21.960;2023-01-16T17:53:33;3.00;99.30
68485;DHT22;55472;50.060;21.960;2023-01-16T17:56:02;3.00;99.90
68485;DHT22;55472;50.060;21.960;2023-01-16T18:01:10;3.00;99.90
68485;DHT22;55472;50.060;21.960;2023-01-16T18:03:38;3.00;99.90
68485;DHT22;55472;50.060;21.960;2023-01-16T18:06:08;2.90;99.90
68485;DHT22;55472;50.060;21.960;2023-01-16T18:08:35;2.90;99.90
68485;DHT22;55472;50.060;21.960;2023-01-16T18:11:03;2.90;99.90
68485;DHT22;55472;50.060;21.960;2023-01-16T18:13:58;2.80;99.90
68485;DHT22;55472;50.060;21.960;2023-01-16T18:16:43;2.80;99.90
68485;DHT22;55472;50.060;21.960;2023-01-16T18:19:28;2.80;99.90
68485;DHT22;55472;50.060;21.960;2023-01-16T18:21:55;2.80;99.90
68485;DHT22;55472;50.060;21.960;2023-01-16T18:24:35;2.80;99.90
68485;DHT22;55472;50.060;21.960;2023-01-16T18:27:07;2.80;99.90
68485;DHT22;55472;50.060;21.960;2023-01-16T18:29:35;2.80;99.90
68485;DHT22;55472;50.060;21.960;2023-01-16T18:32:02;2.80;99.90
68485;DHT22;55472;50.060;21.960;2023-01-16T18:34:55;2.80;99.90
68485;DHT22;55472;50.060;21.960;2023-01-16T18:40:10;2.80;99.90
68485;DHT22;55472;50.060;21.960;2023-01-16T18:42:57;2.80;99.90